Latest Weather Observations for Warra

IDT60801

Issued at 5:35 am EST Wednesday 1 October 2014 (issued every 30 minutes, with the page automatically refreshed every 10 minutes)

About weather observations | Map of weather stations | Latest weather observations for TAS | Other Formats
Station Details ID: 097024 Name: WARRA Lat: -43.06 Lon: 146.70 Height: 495.0 m
Data from the previous 72 hours. | See also: Recent months at Warra
Date/Time
EST
Temp
°C
App
Temp
°C
Dew
Point
Rel
Hum
%
Delta-T
°C
Wind Press
QNH
hPa
Press
MSL
hPa
Rain
since 9 am
mm
Dir
 
Spd
km/h
Gust
km/h
Spd
kts
Gust
kts
01/05:30am 2.8 -2.4 0.2 83 1.0 WSW 17 28 9 15 - - 18.2
01/05:00am 2.6 -2.9 0.3 85 0.9 W 19 35 10 19 - - 18.0
01/04:30am 2.3 -3.2 0.7 89 0.6 WSW 19 35 10 19 - - 17.8
01/04:00am 2.6 -3.2 0.0 83 1.0 W 20 37 11 20 - - 17.0
01/03:30am 2.1 -3.1 0.2 87 0.7 W 17 30 9 16 - - 16.6
01/03:00am 2.2 -3.6 -0.1 85 0.9 W 20 33 11 18 - - 16.6
01/02:30am 2.0 -3.6 1.4 96 0.2 W 20 35 11 19 - - 16.0
01/02:00am 1.3 -3.4 1.2 99 0.0 W 15 26 8 14 - - 15.4
01/01:30am 0.8 -3.5 0.7 99 0.0 WNW 13 20 7 11 - - 15.0
01/01:00am 0.9 -3.5 0.3 96 0.2 W 13 26 7 14 - - 14.8
01/12:30am 2.1 -3.6 0.8 91 0.5 W 20 37 11 20 - - 14.2
01/12:00am 2.3 -3.4 0.4 87 0.7 W 20 41 11 22 - - 13.2
 
Date/Time
EST
Temp
°C
App
Temp
°C
Dew
Point
Rel
Hum
%
Delta-T
°C
Wind Press
QNH
hPa
Press
MSL
hPa
Rain
since 9 am
mm
Dir
 
Spd
km/h
Gust
km/h
Spd
kts
Gust
kts
30/11:31pm 2.6 -4.7 0.0 83 1.0 W 28 59 15 32 - - 12.8
30/11:30pm 2.6 -4.3 0.0 83 1.0 W 26 59 14 32 - - 12.8
30/11:00pm 2.8 -3.1 -0.5 79 1.2 W 20 39 11 21 - - 12.8
30/10:30pm 2.8 -2.0 0.5 85 0.9 W 15 30 8 16 - - 12.8
30/10:00pm 2.6 -2.9 0.7 87 0.7 W 19 32 10 17 - - 12.6
30/09:30pm 3.0 -3.5 0.2 82 1.1 W 24 43 13 23 - - 12.4
30/09:00pm 3.6 -2.5 0.5 80 1.2 W 22 39 12 21 - - 12.2
30/08:30pm 2.8 -2.9 0.5 85 0.9 W 20 35 11 19 - - 12.2
30/08:00pm 3.4 -3.4 1.1 85 0.9 W 26 41 14 22 - - 12.0
30/07:30pm 3.3 -2.7 1.3 87 0.8 W 22 39 12 21 - - 12.0
30/07:00pm 3.3 -1.6 1.7 89 0.6 WNW 17 22 9 12 - - 12.0
30/06:30pm 2.8 -3.1 1.8 93 0.4 WSW 22 41 12 22 - - 12.0
30/06:00pm 2.4 -3.1 2.0 97 0.2 W 20 37 11 20 - - 11.6
30/05:30pm 3.6 -2.5 2.7 94 0.4 W 24 48 13 26 - - 9.8
30/05:00pm 4.5 -1.5 3.5 93 0.4 W 24 41 13 22 - - 8.2
30/04:30pm 5.5 0.4 4.0 90 0.7 WSW 20 30 11 16 - - 7.0
30/04:00pm 6.8 3.9 4.6 86 1.0 NW 9 24 5 13 - - 6.8
30/03:30pm 6.6 3.9 5.4 92 0.5 W 9 15 5 8 - - 6.8
30/03:00pm 7.2 4.5 5.5 89 0.8 W 9 20 5 11 - - 6.8
30/02:30pm 6.8 3.5 6.2 96 0.3 WNW 13 24 7 13 - - 6.8
30/02:00pm 6.1 3.0 5.7 97 0.2 WSW 11 20 6 11 - - 6.6
30/01:30pm 6.5 4.2 5.9 96 0.3 NNW 7 13 4 7 - - 6.4
30/01:00pm 6.2 1.3 5.3 94 0.4 W 20 41 11 22 - - 5.8
30/12:30pm 8.5 5.4 7.3 92 0.6 WSW 13 26 7 14 - - 4.8
30/12:00pm 9.1 6.5 7.9 92 0.6 NNW 11 19 6 10 - - 4.4
30/11:30am 9.2 5.3 7.3 88 0.9 WNW 17 35 9 19 - - 4.4
30/11:00am 8.6 5.2 7.5 93 0.5 W 15 37 8 20 - - 4.4
30/10:30am 9.3 5.0 7.9 91 0.7 W 20 39 11 21 - - 3.2
30/10:00am 10.5 5.4 9.1 91 0.7 NW 26 44 14 24 - - 1.6
30/09:46am 9.9 4.2 8.3 90 0.8 NW 28 46 15 25 - - 1.4
30/09:30am 10.3 5.4 8.6 89 0.9 NW 24 46 13 25 - - 1.0
30/09:00am 10.1 3.7 7.0 81 1.5 NW 30 50 16 27 - - 0.4
30/08:37am 11.9 5.7 6.2 68 2.8 NW 28 52 15 28 - - 0.0
30/08:30am 12.8 7.5 5.0 59 3.7 NW 22 50 12 27 - - 0.0
30/08:00am 12.5 8.5 5.0 60 3.6 NNW 15 35 8 19 - - 0.0
30/07:30am 10.9 5.9 4.6 65 2.9 NW 20 50 11 27 - - 0.0
30/07:00am 10.4 7.2 5.2 70 2.4 NNW 11 26 6 14 - - 0.0
30/06:30am 9.7 5.7 4.9 72 2.2 NNW 15 30 8 16 - - 0.0
30/06:00am 9.5 4.7 4.7 72 2.2 NNW 19 32 10 17 - - 0.0
30/05:30am 9.5 3.8 4.7 72 2.2 NW 24 48 13 26 - - 0.0
30/05:02am 9.5 3.0 4.7 72 2.2 NW 28 46 15 25 - - 0.0
30/05:00am 9.6 2.7 4.8 72 2.2 NW 30 46 16 25 - - 0.0
30/04:30am 9.4 2.9 4.6 72 2.2 NW 28 46 15 25 - - 0.0
30/04:16am 9.4 2.5 4.4 71 2.3 NW 30 54 16 29 - - 0.0
30/04:00am 9.4 2.1 4.4 71 2.3 NW 32 46 17 25 - - 0.0
30/03:37am 9.3 2.7 4.3 71 2.3 NW 28 46 15 25 - - 0.0
30/03:30am 9.3 2.3 4.3 71 2.3 NW 30 43 16 23 - - 0.0
30/03:00am 9.3 1.7 3.7 68 2.5 NW 33 57 18 31 - - 0.0
30/02:30am 9.5 0.7 3.5 66 2.7 WNW 39 70 21 38 - - 0.0
30/02:00am 9.4 1.4 3.8 68 2.5 NW 35 56 19 30 - - 0.0
30/01:30am 9.3 1.5 4.9 74 2.0 NW 35 59 19 32 - - 0.0
30/01:00am 9.3 2.1 4.9 74 2.0 NW 32 56 17 30 - - 0.0
30/12:32am 9.7 2.9 5.1 73 2.1 NW 30 48 16 26 - - 0.0
30/12:30am 9.6 2.4 5.2 74 2.0 WNW 32 48 17 26 - - 0.0
30/12:00am 9.5 2.6 4.7 72 2.2 NW 30 50 16 27 - - 0.0
 
Date/Time
EST
Temp
°C
App
Temp
°C
Dew
Point
Rel
Hum
%
Delta-T
°C
Wind Press
QNH
hPa
Press
MSL
hPa
Rain
since 9 am
mm
Dir
 
Spd
km/h
Gust
km/h
Spd
kts
Gust
kts
29/11:30pm 9.6 0.0 4.6 71 2.3 NW 44 72 24 39 - - 0.0
29/11:24pm 9.8 -1.7 4.6 70 2.4 WNW 54 72 29 39 - - 0.0
29/11:23pm 9.8 -2.6 4.6 70 2.4 WNW 59 72 32 39 - - 0.0
29/11:00pm 9.5 0.9 4.5 71 2.3 NW 39 65 21 35 - - 0.0
29/10:30pm 9.5 0.6 5.3 75 2.0 NW 41 69 22 37 - - 0.0
29/10:00pm 9.7 0.3 4.3 69 2.5 NW 43 67 23 36 - - 0.0
29/09:30pm 9.5 1.2 4.1 69 2.4 WNW 37 63 20 34 - - 0.0
29/09:00pm 9.3 1.7 3.9 69 2.4 WNW 33 59 18 32 - - 0.0
29/08:30pm 9.5 1.8 3.5 66 2.7 WNW 33 63 18 34 - - 0.0
29/08:19pm 9.5 1.8 3.5 66 2.7 WNW 33 76 18 41 - - 0.0
29/08:00pm 9.3 2.5 3.1 65 2.7 WNW 28 50 15 27 - - 0.0
29/07:39pm 9.4 2.6 2.9 64 2.9 WNW 28 52 15 28 - - 0.0
29/07:30pm 9.0 3.3 2.8 65 2.7 WNW 22 43 12 23 - - 0.0
29/07:00pm 9.0 2.1 2.8 65 2.7 NW 28 57 15 31 - - 0.0
29/06:32pm 9.3 2.5 2.9 64 2.8 W 28 52 15 28 - - 0.0
29/06:30pm 9.2 2.7 2.8 64 2.8 W 26 52 14 28 - - 0.0
29/06:00pm 9.6 3.9 2.7 62 3.0 WNW 22 61 12 33 - - 0.0
29/05:30pm 10.1 4.4 2.9 61 3.2 WNW 22 37 12 20 - - 0.0
29/05:00pm 10.5 5.2 2.8 59 3.4 WNW 20 35 11 19 - - 0.0
29/04:30pm 11.0 5.2 2.3 55 3.8 WNW 22 44 12 24 - - 0.0
29/04:10pm 11.6 4.7 2.4 53 4.1 W 28 52 15 28 - - 0.0
29/04:00pm 11.9 5.4 2.6 53 4.2 WNW 26 52 14 28 - - 0.0
29/03:30pm 11.9 5.1 2.9 54 4.1 WNW 28 50 15 27 - - 0.0
29/03:00pm 11.6 3.7 2.4 53 4.1 NW 33 52 18 28 - - 0.0
29/02:33pm 13.2 6.3 2.7 49 4.8 WNW 28 52 15 28 - - 0.0
29/02:30pm 12.9 6.7 2.2 48 4.8 WNW 24 52 13 28 - - 0.0
29/02:00pm 12.7 4.0 1.7 47 4.9 WNW 37 59 20 32 - - 0.0
29/01:30pm 12.3 3.9 1.6 48 4.7 WNW 35 59 19 32 - - 0.0
29/01:00pm 12.4 5.2 3.1 53 4.2 WNW 30 50 16 27 - - 0.0
29/12:30pm 12.2 4.4 2.9 53 4.2 WNW 33 57 18 31 - - 0.0
29/12:02pm 12.4 5.5 2.6 51 4.4 WNW 28 46 15 25 - - 0.0
29/12:00pm 12.3 5.0 2.5 51 4.4 WNW 30 46 16 25 - - 0.0
29/11:30am 11.9 4.9 2.1 51 4.3 WNW 28 48 15 26 - - 0.0
29/11:18am 11.5 4.5 1.7 51 4.3 WNW 28 50 15 27 - - 0.0
29/11:00am 10.8 4.7 2.9 58 3.5 WNW 24 44 13 24 - - 0.0
29/10:30am 11.0 5.7 2.8 57 3.7 WNW 20 37 11 20 - - 0.0
29/10:00am 11.0 5.6 2.6 56 3.7 WNW 20 41 11 22 - - 0.0
29/09:30am 9.7 2.6 1.6 57 3.5 WNW 28 57 15 31 - - 0.0
29/09:00am 8.9 1.4 1.1 58 3.3 NW 30 56 16 30 - - 17.6
29/08:30am 7.9 1.2 3.4 73 2.0 WNW 28 54 15 29 - - 17.6
29/08:19am 7.5 0.8 3.4 75 1.8 W 28 48 15 26 - - 17.6
29/08:00am 7.5 0.8 3.4 75 1.8 WNW 28 44 15 24 - - 17.4
29/07:49am 7.5 0.6 2.4 70 2.2 WNW 28 48 15 26 - - 17.4
29/07:30am 7.6 1.6 3.3 74 1.9 WNW 24 44 13 24 - - 17.4
29/07:00am 6.8 0.1 3.4 79 1.5 WNW 28 54 15 29 - - 17.4
29/06:57am 6.6 -0.2 2.9 77 1.6 WNW 28 54 15 29 - - 17.4
29/06:30am 5.9 -0.4 3.7 86 1.0 WNW 26 41 14 22 - - 17.4
29/06:00am 5.5 0.4 4.3 92 0.5 WNW 20 35 11 19 - - 17.2
29/05:30am 5.7 -1.5 3.2 84 1.1 WNW 30 48 16 26 - - 15.4
29/05:00am 6.5 -1.1 2.8 77 1.6 WNW 32 59 17 32 - - 14.8
29/04:30am 6.0 -1.7 3.2 82 1.2 WNW 33 56 18 30 - - 14.8
29/04:02am 5.7 -1.3 4.0 89 0.7 WNW 30 50 16 27 - - 14.8
29/04:00am 5.6 -1.4 3.9 89 0.7 WNW 30 46 16 25 - - 14.8
29/03:54am 5.5 -1.1 4.0 90 0.7 WNW 28 46 15 25 - - 14.8
29/03:30am 5.1 -0.4 3.8 91 0.6 WNW 22 44 12 24 - - 14.2
29/03:00am 6.2 0.8 4.7 90 0.7 W 22 41 12 22 - - 10.2
29/02:30am 7.0 2.1 5.2 88 0.8 NW 20 35 11 19 - - 6.2
29/02:01am 8.3 1.6 3.6 72 2.1 NW 28 46 15 25 - - 5.6
29/02:00am 8.2 1.9 3.5 72 2.1 NW 26 46 14 25 - - 5.6
29/01:37am 8.1 1.4 3.8 74 1.9 NW 28 52 15 28 - - 5.6
29/01:30am 8.2 1.9 4.0 75 1.9 NW 26 52 14 28 - - 5.6
29/01:00am 8.8 0.9 2.4 64 2.8 NW 33 52 18 28 - - 5.6
29/12:30am 8.9 1.7 2.9 66 2.6 NW 30 48 16 26 - - 5.6
29/12:00am 9.1 2.3 3.1 66 2.6 WNW 28 52 15 28 - - 5.6
 
Date/Time
EST
Temp
°C
App
Temp
°C
Dew
Point
Rel
Hum
%
Delta-T
°C
Wind Press
QNH
hPa
Press
MSL
hPa
Rain
since 9 am
mm
Dir
 
Spd
km/h
Gust
km/h
Spd
kts
Gust
kts
28/11:36pm 9.0 2.3 3.6 69 2.4 NW 28 50 15 27 - - 5.6
28/11:30pm 8.8 3.8 3.8 71 2.2 NW 19 41 10 22 - - 5.6
28/11:00pm 8.7 3.5 3.3 69 2.4 WNW 20 32 11 17 - - 5.4
28/10:30pm 8.8 3.6 3.4 69 2.4 WNW 20 43 11 23 - - 5.4
28/10:00pm 9.3 3.9 4.3 71 2.3 WNW 22 33 12 18 - - 5.4
28/09:30pm 9.6 3.7 6.0 78 1.7 NW 26 41 14 22 - - 5.4
28/09:23pm 9.7 3.6 6.4 80 1.6 NW 28 46 15 25 - - 5.4
28/09:00pm 10.1 4.5 7.3 83 1.4 NW 26 41 14 22 - - 5.4
28/08:30pm 10.4 5.4 8.0 85 1.2 NW 24 39 13 21 - - 5.4
28/08:00pm 10.9 7.1 9.7 92 0.6 NW 20 28 11 15 - - 4.8
28/07:30pm 11.8 7.8 10.4 91 0.7 NW 22 39 12 21 - - 2.6
28/07:00pm 12.1 9.0 10.2 88 1.0 NW 17 37 9 20 - - 2.2
28/06:30pm 11.9 8.7 10.1 89 0.9 NNW 17 30 9 16 - - 2.0
28/06:00pm 12.0 9.6 9.9 87 1.1 NNW 13 20 7 11 - - 1.8
28/05:30pm 12.5 8.7 9.7 83 1.5 WNW 20 32 11 17 - - 1.2
28/05:08pm 12.8 7.4 9.4 80 1.8 NW 28 57 15 31 - - 1.2
28/05:06pm 13.0 7.9 9.1 77 2.0 NW 26 57 14 31 - - 1.0
28/05:00pm 13.4 7.8 8.9 74 2.3 NW 28 35 15 19 - - 1.0
28/04:30pm 16.0 9.1 6.4 53 4.8 NW 32 63 17 34 - - 1.0
28/04:00pm 14.7 8.0 7.5 62 3.7 NW 32 67 17 36 - - 0.8
28/03:40pm 14.8 8.5 7.6 62 3.7 NW 30 52 16 28 - - 0.6
28/03:30pm 14.3 10.4 8.7 69 2.9 NW 19 41 10 22 - - 0.6
28/03:00pm 15.3 10.9 7.6 60 3.9 NNW 20 41 11 22 - - 0.4
28/02:55pm 15.2 11.1 8.0 62 3.7 NNW 19 28 10 15 - - 0.4
28/02:30pm 15.2 7.2 7.5 60 3.9 NW 39 76 21 41 - - 0.2
28/02:22pm 15.7 8.3 6.7 55 4.5 NW 35 76 19 41 - - 0.0
28/02:11pm 17.6 11.3 5.5 45 6.0 NW 28 56 15 30 - - 0.0
28/02:00pm 18.4 12.6 4.6 40 6.8 NW 24 44 13 24 - - 0.0
28/01:49pm 19.0 11.0 4.0 37 7.3 NW 35 72 19 39 - - 0.0
28/01:32pm 19.5 12.9 4.0 36 7.6 NW 28 50 15 27 - - 0.0
28/01:30pm 19.5 13.6 4.0 36 7.6 NW 24 46 13 25 - - 0.0
28/01:01pm 20.7 14.1 4.3 34 8.1 NW 28 52 15 28 - - 0.0
28/01:00pm 20.7 14.5 4.3 34 8.1 NW 26 52 14 28 - - 0.0
28/12:30pm 20.9 13.2 3.2 31 8.6 NW 33 56 18 30 - - 0.0
28/12:00pm 21.7 11.9 2.4 28 9.3 NW 43 69 23 37 - - 0.0
28/11:30am 22.1 12.9 3.3 29 9.2 NW 41 89 22 48 - - 0.0
28/11:00am 22.6 13.3 2.7 27 9.7 NW 41 85 22 46 - - 0.0
28/10:58am 22.6 14.4 2.7 27 9.7 NW 35 85 19 46 - - 0.0
28/10:55am 22.7 15.5 2.8 27 9.7 NW 30 65 16 35 - - 0.0
28/10:33am 22.7 16.0 3.8 29 9.4 NW 28 46 15 25 - - 0.0
28/10:30am 22.9 17.1 4.4 30 9.3 NW 24 46 13 25 - - 0.0
28/10:00am 22.2 18.8 7.6 39 7.8 N 15 30 8 16 - - 0.0
28/09:30am 20.6 16.8 7.6 43 6.9 NNW 17 26 9 14 - - 0.0
28/09:00am 18.7 14.8 7.2 47 6.0 NNW 17 26 9 14 - - 0.0
28/08:30am 18.0 13.7 6.8 48 5.7 NNW 19 30 10 16 - - 0.0
28/08:00am 17.7 13.2 6.9 49 5.5 NNW 20 32 11 17 - - 0.0
28/07:30am 16.4 9.8 6.2 51 5.1 NNW 30 56 16 30 - - 0.0
28/07:11am 16.2 10.0 6.1 51 5.0 NNW 28 46 15 25 - - 0.0
28/07:00am 15.8 10.3 6.0 52 4.9 NNW 24 43 13 23 - - 0.0
28/06:30am 15.5 10.3 5.7 52 4.8 NNW 22 39 12 21 - - 0.0
28/06:00am 15.3 10.1 5.5 52 4.8 NNW 22 39 12 21 - - 0.0

Other Formats:

Comma delimited format used in spreadsheet applications
http://www.bom.gov.au/fwo/IDT60801/IDT60801.95962.axf

JavaScript Object Notation format (JSON) in row-major order
http://www.bom.gov.au/fwo/IDT60801/IDT60801.95962.json